sensor_id;sensor_type;location;lat;lon;timestamp;P1;durP1;ratioP1;P2;durP2;ratioP2
63817;SDS011;53093;55.092;73.476;2022-10-16T00:01:33;19.08;;;12.60;;
63817;SDS011;53093;55.092;73.476;2022-10-16T00:04:00;17.85;;;12.05;;
63817;SDS011;53093;55.092;73.476;2022-10-16T00:06:29;17.27;;;12.05;;
63817;SDS011;53093;55.092;73.476;2022-10-16T00:08:56;18.67;;;12.80;;
63817;SDS011;53093;55.092;73.476;2022-10-16T00:11:30;19.45;;;12.70;;
63817;SDS011;53093;55.092;73.476;2022-10-16T00:14:00;17.63;;;11.85;;
63817;SDS011;53093;55.092;73.476;2022-10-16T00:16:28;19.70;;;12.30;;
63817;SDS011;53093;55.092;73.476;2022-10-16T00:18:55;20.95;;;12.05;;
63817;SDS011;53093;55.092;73.476;2022-10-16T00:21:23;18.80;;;12.93;;
63817;SDS011;53093;55.092;73.476;2022-10-16T00:23:51;17.35;;;12.48;;
63817;SDS011;53093;55.092;73.476;2022-10-16T00:28:52;22.00;;;11.70;;
63817;SDS011;53093;55.092;73.476;2022-10-16T00:31:29;17.25;;;11.40;;
63817;SDS011;53093;55.092;73.476;2022-10-16T00:33:56;13.82;;;10.40;;
63817;SDS011;53093;55.092;73.476;2022-10-16T00:36:24;18.20;;;11.18;;
63817;SDS011;53093;55.092;73.476;2022-10-16T00:38:56;19.58;;;11.15;;
63817;SDS011;53093;55.092;73.476;2022-10-16T00:41:26;18.98;;;11.50;;
63817;SDS011;53093;55.092;73.476;2022-10-16T00:43:57;19.40;;;11.32;;
63817;SDS011;53093;55.092;73.476;2022-10-16T00:46:28;18.10;;;11.32;;
63817;SDS011;53093;55.092;73.476;2022-10-16T00:51:33;19.10;;;11.70;;
63817;SDS011;53093;55.092;73.476;2022-10-16T00:54:02;16.92;;;11.43;;
63817;SDS011;53093;55.092;73.476;2022-10-16T00:56:29;17.40;;;11.20;;
63817;SDS011;53093;55.092;73.476;2022-10-16T00:59:07;17.95;;;11.23;;
63817;SDS011;53093;55.092;73.476;2022-10-16T01:01:37;19.63;;;11.27;;
63817;SDS011;53093;55.092;73.476;2022-10-16T01:04:04;17.92;;;11.07;;
63817;SDS011;53093;55.092;73.476;2022-10-16T01:06:33;16.48;;;11.30;;
63817;SDS011;53093;55.092;73.476;2022-10-16T01:09:13;14.63;;;11.15;;
63817;SDS011;53093;55.092;73.476;2022-10-16T01:11:53;17.17;;;10.98;;
63817;SDS011;53093;55.092;73.476;2022-10-16T01:14:30;18.50;;;11.13;;
63817;SDS011;53093;55.092;73.476;2022-10-16T01:17:22;17.13;;;11.52;;
63817;SDS011;53093;55.092;73.476;2022-10-16T01:22:22;18.70;;;10.95;;
63817;SDS011;53093;55.092;73.476;2022-10-16T01:24:52;16.13;;;10.90;;
63817;SDS011;53093;55.092;73.476;2022-10-16T01:27:25;15.18;;;10.80;;
63817;SDS011;53093;55.092;73.476;2022-10-16T01:40:23;16.40;;;10.40;;
63817;SDS011;53093;55.092;73.476;2022-10-16T01:43:02;15.90;;;10.45;;
63817;SDS011;53093;55.092;73.476;2022-10-16T01:45:30;16.80;;;11.60;;
63817;SDS011;53093;55.092;73.476;2022-10-16T01:47:58;17.23;;;11.80;;
63817;SDS011;53093;55.092;73.476;2022-10-16T01:50:26;19.73;;;11.85;;
63817;SDS011;53093;55.092;73.476;2022-10-16T01:52:54;22.63;;;13.75;;
63817;SDS011;53093;55.092;73.476;2022-10-16T01:55:22;22.73;;;13.95;;
63817;SDS011;53093;55.092;73.476;2022-10-16T01:57:51;18.98;;;11.95;;
63817;SDS011;53093;55.092;73.476;2022-10-16T02:00:23;19.70;;;13.30;;
63817;SDS011;53093;55.092;73.476;2022-10-16T02:02:52;21.00;;;13.40;;
63817;SDS011;53093;55.092;73.476;2022-10-16T02:05:26;21.17;;;13.13;;
63817;SDS011;53093;55.092;73.476;2022-10-16T02:07:55;21.10;;;13.07;;
63817;SDS011;53093;55.092;73.476;2022-10-16T02:10:22;20.20;;;12.68;;
63817;SDS011;53093;55.092;73.476;2022-10-16T02:12:55;15.93;;;11.93;;
63817;SDS011;53093;55.092;73.476;2022-10-16T02:15:24;17.45;;;11.93;;
63817;SDS011;53093;55.092;73.476;2022-10-16T02:17:51;19.10;;;11.98;;
63817;SDS011;53093;55.092;73.476;2022-10-16T02:20:18;19.10;;;11.88;;
63817;SDS011;53093;55.092;73.476;2022-10-16T02:22:48;19.60;;;11.65;;
63817;SDS011;53093;55.092;73.476;2022-10-16T02:30:44;21.45;;;11.27;;
63817;SDS011;53093;55.092;73.476;2022-10-16T02:33:12;19.08;;;10.00;;
63817;SDS011;53093;55.092;73.476;2022-10-16T02:35:43;19.65;;;10.57;;
63817;SDS011;53093;55.092;73.476;2022-10-16T02:38:11;19.75;;;10.32;;
63817;SDS011;53093;55.092;73.476;2022-10-16T02:40:42;15.98;;;9.40;;
63817;SDS011;53093;55.092;73.476;2022-10-16T02:43:09;17.30;;;9.90;;
63817;SDS011;53093;55.092;73.476;2022-10-16T02:45:37;18.15;;;9.93;;
63817;SDS011;53093;55.092;73.476;2022-10-16T02:48:04;19.48;;;11.35;;
63817;SDS011;53093;55.092;73.476;2022-10-16T02:50:31;21.60;;;12.40;;
63817;SDS011;53093;55.092;73.476;2022-10-16T02:52:58;17.25;;;11.80;;
63817;SDS011;53093;55.092;73.476;2022-10-16T02:55:25;18.10;;;11.07;;
63817;SDS011;53093;55.092;73.476;2022-10-16T02:57:54;16.05;;;10.55;;
63817;SDS011;53093;55.092;73.476;2022-10-16T03:00:21;20.45;;;10.30;;
63817;SDS011;53093;55.092;73.476;2022-10-16T03:02:48;17.77;;;9.88;;
63817;SDS011;53093;55.092;73.476;2022-10-16T03:05:15;18.60;;;13.30;;
63817;SDS011;53093;55.092;73.476;2022-10-16T03:07:42;20.52;;;14.15;;
63817;SDS011;53093;55.092;73.476;2022-10-16T03:10:09;25.67;;;18.98;;
63817;SDS011;53093;55.092;73.476;2022-10-16T03:12:45;24.70;;;18.65;;
63817;SDS011;53093;55.092;73.476;2022-10-16T03:15:12;24.17;;;18.17;;
63817;SDS011;53093;55.092;73.476;2022-10-16T03:17:39;23.15;;;19.25;;
63817;SDS011;53093;55.092;73.476;2022-10-16T03:20:06;25.58;;;19.02;;
63817;SDS011;53093;55.092;73.476;2022-10-16T03:22:33;23.35;;;16.13;;
63817;SDS011;53093;55.092;73.476;2022-10-16T03:25:00;21.55;;;16.83;;
63817;SDS011;53093;55.092;73.476;2022-10-16T03:27:33;21.58;;;14.45;;
63817;SDS011;53093;55.092;73.476;2022-10-16T03:30:09;22.63;;;13.80;;
63817;SDS011;53093;55.092;73.476;2022-10-16T03:32:36;19.70;;;14.13;;
63817;SDS011;53093;55.092;73.476;2022-10-16T03:35:03;20.30;;;14.85;;
63817;SDS011;53093;55.092;73.476;2022-10-16T03:37:40;18.95;;;13.73;;
63817;SDS011;53093;55.092;73.476;2022-10-16T03:40:07;19.17;;;12.05;;
63817;SDS011;53093;55.092;73.476;2022-10-16T03:42:34;17.88;;;11.80;;
63817;SDS011;53093;55.092;73.476;2022-10-16T03:45:01;20.15;;;11.52;;
63817;SDS011;53093;55.092;73.476;2022-10-16T03:47:38;20.38;;;10.85;;
63817;SDS011;53093;55.092;73.476;2022-10-16T03:50:05;19.70;;;11.70;;
63817;SDS011;53093;55.092;73.476;2022-10-16T03:52:37;21.77;;;10.98;;
63817;SDS011;53093;55.092;73.476;2022-10-16T03:55:04;23.33;;;11.35;;
63817;SDS011;53093;55.092;73.476;2022-10-16T03:57:41;20.10;;;11.75;;
63817;SDS011;53093;55.092;73.476;2022-10-16T04:00:08;20.02;;;12.07;;
63817;SDS011;53093;55.092;73.476;2022-10-16T04:02:41;21.45;;;11.85;;
63817;SDS011;53093;55.092;73.476;2022-10-16T04:05:08;19.40;;;12.68;;
63817;SDS011;53093;55.092;73.476;2022-10-16T04:07:35;20.52;;;12.57;;
63817;SDS011;53093;55.092;73.476;2022-10-16T04:10:02;22.63;;;12.40;;
63817;SDS011;53093;55.092;73.476;2022-10-16T04:12:34;21.52;;;11.77;;
63817;SDS011;53093;55.092;73.476;2022-10-16T04:15:01;19.67;;;12.13;;
63817;SDS011;53093;55.092;73.476;2022-10-16T04:17:32;17.75;;;13.00;;
63817;SDS011;53093;55.092;73.476;2022-10-16T04:19:59;23.65;;;12.45;;
63817;SDS011;53093;55.092;73.476;2022-10-16T04:22:26;20.65;;;12.73;;
63817;SDS011;53093;55.092;73.476;2022-10-16T04:24:59;21.85;;;12.98;;
63817;SDS011;53093;55.092;73.476;2022-10-16T04:27:30;20.08;;;13.15;;
63817;SDS011;53093;55.092;73.476;2022-10-16T04:29:58;18.83;;;13.10;;
63817;SDS011;53093;55.092;73.476;2022-10-16T04:32:25;20.40;;;14.57;;
63817;SDS011;53093;55.092;73.476;2022-10-16T04:35:03;22.67;;;14.73;;
63817;SDS011;53093;55.092;73.476;2022-10-16T04:37:30;22.05;;;14.63;;
63817;SDS011;53093;55.092;73.476;2022-10-16T04:40:02;20.10;;;13.60;;
63817;SDS011;53093;55.092;73.476;2022-10-16T04:42:34;19.20;;;14.27;;
63817;SDS011;53093;55.092;73.476;2022-10-16T04:45:02;27.42;;;17.10;;
63817;SDS011;53093;55.092;73.476;2022-10-16T04:47:29;31.13;;;19.42;;
63817;SDS011;53093;55.092;73.476;2022-10-16T04:49:56;26.40;;;17.38;;
63817;SDS011;53093;55.092;73.476;2022-10-16T04:52:26;29.13;;;20.00;;
63817;SDS011;53093;55.092;73.476;2022-10-16T04:54:53;31.80;;;20.60;;
63817;SDS011;53093;55.092;73.476;2022-10-16T04:57:22;34.90;;;21.92;;
63817;SDS011;53093;55.092;73.476;2022-10-16T04:59:49;37.95;;;22.77;;
63817;SDS011;53093;55.092;73.476;2022-10-16T05:02:16;41.50;;;22.00;;
63817;SDS011;53093;55.092;73.476;2022-10-16T05:04:48;38.22;;;22.38;;
63817;SDS011;53093;55.092;73.476;2022-10-16T05:07:15;35.25;;;21.63;;
63817;SDS011;53093;55.092;73.476;2022-10-16T05:09:50;38.15;;;20.75;;
63817;SDS011;53093;55.092;73.476;2022-10-16T05:12:19;33.90;;;19.85;;
63817;SDS011;53093;55.092;73.476;2022-10-16T05:14:47;27.60;;;17.33;;
63817;SDS011;53093;55.092;73.476;2022-10-16T05:17:14;33.65;;;18.63;;
63817;SDS011;53093;55.092;73.476;2022-10-16T05:19:41;33.15;;;19.25;;
63817;SDS011;53093;55.092;73.476;2022-10-16T05:22:08;32.97;;;17.98;;
63817;SDS011;53093;55.092;73.476;2022-10-16T05:24:39;23.75;;;15.52;;
63817;SDS011;53093;55.092;73.476;2022-10-16T05:27:06;27.73;;;16.73;;
63817;SDS011;53093;55.092;73.476;2022-10-16T05:29:33;26.30;;;16.55;;
63817;SDS011;53093;55.092;73.476;2022-10-16T05:32:01;32.78;;;17.33;;
63817;SDS011;53093;55.092;73.476;2022-10-16T05:34:28;23.80;;;14.82;;
63817;SDS011;53093;55.092;73.476;2022-10-16T05:36:55;24.48;;;11.63;;
63817;SDS011;53093;55.092;73.476;2022-10-16T05:39:24;23.85;;;13.35;;
63817;SDS011;53093;55.092;73.476;2022-10-16T05:41:54;24.75;;;13.98;;
63817;SDS011;53093;55.092;73.476;2022-10-16T05:44:26;22.10;;;14.10;;
63817;SDS011;53093;55.092;73.476;2022-10-16T05:46:52;21.73;;;9.93;;
63817;SDS011;53093;55.092;73.476;2022-10-16T05:49:19;19.23;;;10.10;;
63817;SDS011;53093;55.092;73.476;2022-10-16T05:51:51;18.40;;;11.07;;
63817;SDS011;53093;55.092;73.476;2022-10-16T05:54:18;20.67;;;11.35;;
63817;SDS011;53093;55.092;73.476;2022-10-16T05:56:45;20.23;;;11.27;;
63817;SDS011;53093;55.092;73.476;2022-10-16T05:59:12;18.63;;;10.20;;
63817;SDS011;53093;55.092;73.476;2022-10-16T06:01:39;17.33;;;10.38;;
63817;SDS011;53093;55.092;73.476;2022-10-16T06:04:07;19.88;;;8.07;;
63817;SDS011;53093;55.092;73.476;2022-10-16T06:06:34;15.13;;;8.93;;
63817;SDS011;53093;55.092;73.476;2022-10-16T06:09:02;11.00;;;6.65;;
63817;SDS011;53093;55.092;73.476;2022-10-16T06:11:31;10.27;;;5.40;;
63817;SDS011;53093;55.092;73.476;2022-10-16T06:13:58;12.40;;;5.22;;
63817;SDS011;53093;55.092;73.476;2022-10-16T06:16:28;10.73;;;5.43;;
63817;SDS011;53093;55.092;73.476;2022-10-16T06:18:55;8.35;;;5.13;;
63817;SDS011;53093;55.092;73.476;2022-10-16T06:21:23;12.60;;;6.13;;
63817;SDS011;53093;55.092;73.476;2022-10-16T06:23:58;13.00;;;6.18;;
63817;SDS011;53093;55.092;73.476;2022-10-16T06:26:26;12.02;;;6.00;;
63817;SDS011;53093;55.092;73.476;2022-10-16T06:28:54;21.00;;;10.15;;
63817;SDS011;53093;55.092;73.476;2022-10-16T06:31:21;18.38;;;10.73;;
63817;SDS011;53093;55.092;73.476;2022-10-16T06:33:51;24.85;;;13.13;;
63817;SDS011;53093;55.092;73.476;2022-10-16T06:36:19;21.85;;;13.48;;
63817;SDS011;53093;55.092;73.476;2022-10-16T06:38:48;19.70;;;13.32;;
63817;SDS011;53093;55.092;73.476;2022-10-16T06:41:16;27.50;;;15.40;;
63817;SDS011;53093;55.092;73.476;2022-10-16T06:43:43;26.83;;;13.20;;
63817;SDS011;53093;55.092;73.476;2022-10-16T06:46:14;20.85;;;12.63;;
63817;SDS011;53093;55.092;73.476;2022-10-16T06:48:41;22.33;;;12.35;;
63817;SDS011;53093;55.092;73.476;2022-10-16T06:51:13;21.88;;;11.95;;
63817;SDS011;53093;55.092;73.476;2022-10-16T06:53:40;21.13;;;12.25;;
63817;SDS011;53093;55.092;73.476;2022-10-16T06:56:14;26.00;;;13.13;;
63817;SDS011;53093;55.092;73.476;2022-10-16T06:58:41;15.70;;;10.55;;
63817;SDS011;53093;55.092;73.476;2022-10-16T07:01:19;16.20;;;9.65;;
63817;SDS011;53093;55.092;73.476;2022-10-16T07:03:46;30.30;;;13.10;;
63817;SDS011;53093;55.092;73.476;2022-10-16T07:06:23;28.95;;;12.98;;
63817;SDS011;53093;55.092;73.476;2022-10-16T07:08:55;35.45;;;13.10;;
63817;SDS011;53093;55.092;73.476;2022-10-16T07:11:23;24.48;;;12.02;;
63817;SDS011;53093;55.092;73.476;2022-10-16T07:13:50;22.70;;;11.80;;
63817;SDS011;53093;55.092;73.476;2022-10-16T07:16:19;21.70;;;9.25;;
63817;SDS011;53093;55.092;73.476;2022-10-16T07:18:46;18.83;;;8.48;;
63817;SDS011;53093;55.092;73.476;2022-10-16T07:21:16;13.98;;;7.88;;
63817;SDS011;53093;55.092;73.476;2022-10-16T07:23:54;14.77;;;7.05;;
63817;SDS011;53093;55.092;73.476;2022-10-16T07:26:21;8.80;;;5.78;;
63817;SDS011;53093;55.092;73.476;2022-10-16T07:28:48;10.40;;;5.85;;
63817;SDS011;53093;55.092;73.476;2022-10-16T07:31:16;10.88;;;5.70;;
63817;SDS011;53093;55.092;73.476;2022-10-16T07:33:44;9.57;;;5.70;;
63817;SDS011;53093;55.092;73.476;2022-10-16T07:36:12;8.50;;;5.65;;
63817;SDS011;53093;55.092;73.476;2022-10-16T07:38:39;8.60;;;5.85;;
63817;SDS011;53093;55.092;73.476;2022-10-16T07:41:07;8.60;;;5.68;;
63817;SDS011;53093;55.092;73.476;2022-10-16T07:43:40;9.73;;;6.03;;
63817;SDS011;53093;55.092;73.476;2022-10-16T07:46:07;10.38;;;6.28;;
63817;SDS011;53093;55.092;73.476;2022-10-16T07:48:39;9.00;;;5.97;;
63817;SDS011;53093;55.092;73.476;2022-10-16T07:51:06;6.38;;;5.50;;
63817;SDS011;53093;55.092;73.476;2022-10-16T07:53:33;7.78;;;5.50;;
63817;SDS011;53093;55.092;73.476;2022-10-16T07:56:03;7.82;;;5.57;;
63817;SDS011;53093;55.092;73.476;2022-10-16T07:58:31;7.72;;;5.95;;
63817;SDS011;53093;55.092;73.476;2022-10-16T08:00:58;8.50;;;4.88;;
63817;SDS011;53093;55.092;73.476;2022-10-16T08:03:25;7.25;;;5.15;;
63817;SDS011;53093;55.092;73.476;2022-10-16T08:05:52;10.25;;;4.88;;
63817;SDS011;53093;55.092;73.476;2022-10-16T08:08:19;6.45;;;5.13;;
63817;SDS011;53093;55.092;73.476;2022-10-16T08:10:46;7.40;;;5.50;;
63817;SDS011;53093;55.092;73.476;2022-10-16T08:13:13;8.18;;;4.80;;
63817;SDS011;53093;55.092;73.476;2022-10-16T08:15:42;8.82;;;4.65;;
63817;SDS011;53093;55.092;73.476;2022-10-16T08:18:09;9.43;;;5.22;;
63817;SDS011;53093;55.092;73.476;2022-10-16T08:20:36;9.60;;;4.97;;
63817;SDS011;53093;55.092;73.476;2022-10-16T08:23:11;9.25;;;4.93;;
63817;SDS011;53093;55.092;73.476;2022-10-16T08:25:40;6.93;;;4.90;;
63817;SDS011;53093;55.092;73.476;2022-10-16T08:28:10;8.25;;;5.75;;
63817;SDS011;53093;55.092;73.476;2022-10-16T08:30:37;9.23;;;5.53;;
63817;SDS011;53093;55.092;73.476;2022-10-16T08:33:04;6.93;;;5.68;;
63817;SDS011;53093;55.092;73.476;2022-10-16T08:35:33;5.22;;;4.50;;
63817;SDS011;53093;55.092;73.476;2022-10-16T08:38:00;8.13;;;6.07;;
63817;SDS011;53093;55.092;73.476;2022-10-16T08:40:29;9.40;;;6.88;;
63817;SDS011;53093;55.092;73.476;2022-10-16T08:45:44;6.20;;;5.18;;
63817;SDS011;53093;55.092;73.476;2022-10-16T08:50:55;6.05;;;4.80;;
63817;SDS011;53093;55.092;73.476;2022-10-16T08:53:27;5.43;;;4.35;;
63817;SDS011;53093;55.092;73.476;2022-10-16T08:55:55;5.45;;;4.82;;
63817;SDS011;53093;55.092;73.476;2022-10-16T08:58:23;5.32;;;4.40;;
63817;SDS011;53093;55.092;73.476;2022-10-16T09:00:53;8.75;;;6.03;;
63817;SDS011;53093;55.092;73.476;2022-10-16T09:11:36;4.55;;;4.10;;
63817;SDS011;53093;55.092;73.476;2022-10-16T09:14:23;17.60;;;4.90;;
63817;SDS011;53093;55.092;73.476;2022-10-16T09:16:58;4.35;;;3.95;;
63817;SDS011;53093;55.092;73.476;2022-10-16T09:21:52;7.57;;;6.00;;
63817;SDS011;53093;55.092;73.476;2022-10-16T09:24:25;9.65;;;5.70;;
63817;SDS011;53093;55.092;73.476;2022-10-16T09:26:52;13.98;;;9.32;;
63817;SDS011;53093;55.092;73.476;2022-10-16T09:29:20;6.32;;;4.20;;
63817;SDS011;53093;55.092;73.476;2022-10-16T09:31:48;9.10;;;8.20;;
63817;SDS011;53093;55.092;73.476;2022-10-16T09:34:28;6.97;;;4.53;;
63817;SDS011;53093;55.092;73.476;2022-10-16T09:36:57;6.70;;;4.47;;
63817;SDS011;53093;55.092;73.476;2022-10-16T09:39:24;4.35;;;3.95;;
63817;SDS011;53093;55.092;73.476;2022-10-16T09:41:51;6.22;;;3.92;;
63817;SDS011;53093;55.092;73.476;2022-10-16T09:44:26;54.10;;;35.17;;
63817;SDS011;53093;55.092;73.476;2022-10-16T09:47:01;18.17;;;12.25;;
63817;SDS011;53093;55.092;73.476;2022-10-16T09:49:28;12.85;;;5.57;;
63817;SDS011;53093;55.092;73.476;2022-10-16T09:54:53;11.77;;;5.20;;
63817;SDS011;53093;55.092;73.476;2022-10-16T09:57:20;16.58;;;4.60;;
63817;SDS011;53093;55.092;73.476;2022-10-16T09:59:48;10.70;;;4.68;;
63817;SDS011;53093;55.092;73.476;2022-10-16T10:02:16;8.68;;;4.00;;
63817;SDS011;53093;55.092;73.476;2022-10-16T10:04:50;8.65;;;4.40;;
63817;SDS011;53093;55.092;73.476;2022-10-16T10:07:24;10.32;;;4.30;;
63817;SDS011;53093;55.092;73.476;2022-10-16T10:09:52;12.07;;;4.97;;
63817;SDS011;53093;55.092;73.476;2022-10-16T10:12:20;14.07;;;5.15;;
63817;SDS011;53093;55.092;73.476;2022-10-16T10:14:49;13.63;;;5.40;;
63817;SDS011;53093;55.092;73.476;2022-10-16T10:17:21;29.33;;;6.13;;
63817;SDS011;53093;55.092;73.476;2022-10-16T10:22:29;34.75;;;8.23;;
63817;SDS011;53093;55.092;73.476;2022-10-16T10:25:04;8.25;;;3.72;;
63817;SDS011;53093;55.092;73.476;2022-10-16T10:27:38;8.73;;;3.60;;
63817;SDS011;53093;55.092;73.476;2022-10-16T10:30:15;6.05;;;3.95;;
63817;SDS011;53093;55.092;73.476;2022-10-16T10:32:52;3.40;;;3.05;;
63817;SDS011;53093;55.092;73.476;2022-10-16T10:35:22;3.17;;;2.88;;
63817;SDS011;53093;55.092;73.476;2022-10-16T10:38:06;6.32;;;3.35;;
63817;SDS011;53093;55.092;73.476;2022-10-16T10:45:55;5.68;;;3.40;;
63817;SDS011;53093;55.092;73.476;2022-10-16T10:48:29;4.25;;;3.38;;
63817;SDS011;53093;55.092;73.476;2022-10-16T10:51:22;5.47;;;3.85;;
63817;SDS011;53093;55.092;73.476;2022-10-16T10:54:06;9.40;;;5.68;;
63817;SDS011;53093;55.092;73.476;2022-10-16T11:09:02;5.05;;;3.60;;
63817;SDS011;53093;55.092;73.476;2022-10-16T11:11:43;31.25;;;4.97;;
63817;SDS011;53093;55.092;73.476;2022-10-16T11:16:39;4.93;;;3.63;;
63817;SDS011;53093;55.092;73.476;2022-10-16T11:22:06;9.35;;;4.07;;
63817;SDS011;53093;55.092;73.476;2022-10-16T11:24:45;6.25;;;4.40;;
63817;SDS011;53093;55.092;73.476;2022-10-16T11:27:15;11.95;;;6.50;;
63817;SDS011;53093;55.092;73.476;2022-10-16T11:29:45;5.50;;;4.63;;
63817;SDS011;53093;55.092;73.476;2022-10-16T11:32:24;6.65;;;4.80;;
63817;SDS011;53093;55.092;73.476;2022-10-16T11:34:53;10.77;;;5.32;;
63817;SDS011;53093;55.092;73.476;2022-10-16T11:37:27;7.03;;;5.25;;
63817;SDS011;53093;55.092;73.476;2022-10-16T11:40:43;6.57;;;5.60;;
63817;SDS011;53093;55.092;73.476;2022-10-16T11:42:46;8.43;;;5.53;;
63817;SDS011;53093;55.092;73.476;2022-10-16T11:45:24;7.88;;;5.88;;
63817;SDS011;53093;55.092;73.476;2022-10-16T11:53:01;6.18;;;5.55;;
63817;SDS011;53093;55.092;73.476;2022-10-16T11:55:31;7.13;;;5.70;;
63817;SDS011;53093;55.092;73.476;2022-10-16T11:58:32;10.20;;;6.55;;
63817;SDS011;53093;55.092;73.476;2022-10-16T12:03:48;8.60;;;6.28;;
63817;SDS011;53093;55.092;73.476;2022-10-16T12:06:27;7.57;;;5.80;;
63817;SDS011;53093;55.092;73.476;2022-10-16T12:08:57;8.80;;;6.50;;
63817;SDS011;53093;55.092;73.476;2022-10-16T12:16:31;13.15;;;9.50;;
63817;SDS011;53093;55.092;73.476;2022-10-16T12:19:14;14.63;;;10.93;;
63817;SDS011;53093;55.092;73.476;2022-10-16T12:21:42;21.98;;;14.38;;
63817;SDS011;53093;55.092;73.476;2022-10-16T12:26:55;25.60;;;17.05;;
63817;SDS011;53093;55.092;73.476;2022-10-16T12:29:32;21.83;;;15.63;;
63817;SDS011;53093;55.092;73.476;2022-10-16T12:32:00;23.00;;;15.27;;
63817;SDS011;53093;55.092;73.476;2022-10-16T12:36:54;17.13;;;12.80;;
63817;SDS011;53093;55.092;73.476;2022-10-16T12:39:22;14.25;;;11.45;;
63817;SDS011;53093;55.092;73.476;2022-10-16T12:42:00;14.50;;;10.57;;
63817;SDS011;53093;55.092;73.476;2022-10-16T12:44:31;13.48;;;10.10;;
63817;SDS011;53093;55.092;73.476;2022-10-16T12:46:58;11.60;;;10.13;;
63817;SDS011;53093;55.092;73.476;2022-10-16T12:52:01;28.98;;;25.50;;
63817;SDS011;53093;55.092;73.476;2022-10-16T12:54:34;14.55;;;12.45;;
63817;SDS011;53093;55.092;73.476;2022-10-16T12:59:55;7.05;;;6.28;;
63817;SDS011;53093;55.092;73.476;2022-10-16T13:05:09;8.60;;;6.68;;
63817;SDS011;53093;55.092;73.476;2022-10-16T13:10:20;6.90;;;5.68;;
63817;SDS011;53093;55.092;73.476;2022-10-16T13:25:37;17.63;;;13.20;;
63817;SDS011;53093;55.092;73.476;2022-10-16T13:28:08;18.42;;;14.60;;
63817;SDS011;53093;55.092;73.476;2022-10-16T13:30:45;20.75;;;16.42;;
63817;SDS011;53093;55.092;73.476;2022-10-16T13:33:19;20.92;;;17.23;;
63817;SDS011;53093;55.092;73.476;2022-10-16T13:35:51;21.63;;;15.90;;
63817;SDS011;53093;55.092;73.476;2022-10-16T13:38:19;10.50;;;7.53;;
63817;SDS011;53093;55.092;73.476;2022-10-16T13:43:26;8.98;;;6.40;;
63817;SDS011;53093;55.092;73.476;2022-10-16T13:45:57;13.15;;;6.75;;
63817;SDS011;53093;55.092;73.476;2022-10-16T13:48:25;12.60;;;8.63;;
63817;SDS011;53093;55.092;73.476;2022-10-16T13:51:05;19.08;;;13.70;;
63817;SDS011;53093;55.092;73.476;2022-10-16T13:53:34;15.57;;;11.00;;
63817;SDS011;53093;55.092;73.476;2022-10-16T13:56:09;14.90;;;9.10;;
63817;SDS011;53093;55.092;73.476;2022-10-16T13:58:42;11.10;;;8.43;;
63817;SDS011;53093;55.092;73.476;2022-10-16T14:01:19;13.30;;;8.00;;
63817;SDS011;53093;55.092;73.476;2022-10-16T14:03:59;11.13;;;7.63;;
63817;SDS011;53093;55.092;73.476;2022-10-16T14:06:27;11.98;;;7.25;;
63817;SDS011;53093;55.092;73.476;2022-10-16T14:09:00;9.77;;;7.63;;
63817;SDS011;53093;55.092;73.476;2022-10-16T14:11:28;12.50;;;7.88;;
63817;SDS011;53093;55.092;73.476;2022-10-16T14:14:01;14.27;;;8.00;;
63817;SDS011;53093;55.092;73.476;2022-10-16T14:16:30;11.50;;;8.27;;
63817;SDS011;53093;55.092;73.476;2022-10-16T14:18:58;13.18;;;9.00;;
63817;SDS011;53093;55.092;73.476;2022-10-16T14:21:27;11.23;;;8.35;;
63817;SDS011;53093;55.092;73.476;2022-10-16T14:23:59;11.60;;;8.55;;
63817;SDS011;53093;55.092;73.476;2022-10-16T14:26:46;12.50;;;8.95;;
63817;SDS011;53093;55.092;73.476;2022-10-16T14:29:17;10.40;;;7.60;;
63817;SDS011;53093;55.092;73.476;2022-10-16T14:37:24;9.93;;;6.03;;
63817;SDS011;53093;55.092;73.476;2022-10-16T14:39:52;8.32;;;6.30;;
63817;SDS011;53093;55.092;73.476;2022-10-16T14:42:21;18.08;;;10.60;;
63817;SDS011;53093;55.092;73.476;2022-10-16T14:44:51;25.35;;;14.50;;
63817;SDS011;53093;55.092;73.476;2022-10-16T14:47:22;19.38;;;11.50;;
63817;SDS011;53093;55.092;73.476;2022-10-16T14:49:53;18.70;;;12.00;;
63817;SDS011;53093;55.092;73.476;2022-10-16T14:52:22;20.73;;;12.60;;
63817;SDS011;53093;55.092;73.476;2022-10-16T14:54:49;15.52;;;10.70;;
63817;SDS011;53093;55.092;73.476;2022-10-16T14:57:17;15.32;;;9.10;;
63817;SDS011;53093;55.092;73.476;2022-10-16T14:59:45;12.73;;;7.85;;
63817;SDS011;53093;55.092;73.476;2022-10-16T15:04:48;14.95;;;8.65;;
63817;SDS011;53093;55.092;73.476;2022-10-16T15:07:15;14.05;;;9.63;;
63817;SDS011;53093;55.092;73.476;2022-10-16T15:09:42;12.23;;;9.10;;
63817;SDS011;53093;55.092;73.476;2022-10-16T15:12:09;14.27;;;10.07;;
63817;SDS011;53093;55.092;73.476;2022-10-16T15:14:36;17.48;;;11.65;;
63817;SDS011;53093;55.092;73.476;2022-10-16T15:17:03;18.90;;;12.02;;
63817;SDS011;53093;55.092;73.476;2022-10-16T15:19:31;18.13;;;12.13;;
63817;SDS011;53093;55.092;73.476;2022-10-16T15:21:57;18.30;;;11.98;;
63817;SDS011;53093;55.092;73.476;2022-10-16T15:24:30;18.08;;;11.70;;
63817;SDS011;53093;55.092;73.476;2022-10-16T15:26:56;15.55;;;10.80;;
63817;SDS011;53093;55.092;73.476;2022-10-16T15:29:23;18.20;;;9.90;;
63817;SDS011;53093;55.092;73.476;2022-10-16T15:31:50;15.32;;;9.40;;
63817;SDS011;53093;55.092;73.476;2022-10-16T15:34:27;13.77;;;9.43;;
63817;SDS011;53093;55.092;73.476;2022-10-16T15:36:54;13.80;;;9.52;;
63817;SDS011;53093;55.092;73.476;2022-10-16T15:39:21;18.15;;;9.77;;
63817;SDS011;53093;55.092;73.476;2022-10-16T15:41:48;17.02;;;10.77;;
63817;SDS011;53093;55.092;73.476;2022-10-16T15:44:17;12.65;;;9.40;;
63817;SDS011;53093;55.092;73.476;2022-10-16T15:46:45;13.73;;;10.05;;
63817;SDS011;53093;55.092;73.476;2022-10-16T15:49:12;16.52;;;9.95;;
63817;SDS011;53093;55.092;73.476;2022-10-16T15:51:39;23.17;;;14.40;;
63817;SDS011;53093;55.092;73.476;2022-10-16T15:54:07;24.48;;;15.30;;
63817;SDS011;53093;55.092;73.476;2022-10-16T15:56:34;23.15;;;16.38;;
63817;SDS011;53093;55.092;73.476;2022-10-16T15:59:03;25.95;;;15.57;;
63817;SDS011;53093;55.092;73.476;2022-10-16T16:01:32;27.70;;;17.30;;
63817;SDS011;53093;55.092;73.476;2022-10-16T16:03:59;31.88;;;19.48;;
63817;SDS011;53093;55.092;73.476;2022-10-16T16:06:36;30.05;;;19.77;;
63817;SDS011;53093;55.092;73.476;2022-10-16T16:09:05;31.38;;;20.10;;
63817;SDS011;53093;55.092;73.476;2022-10-16T16:11:32;32.38;;;21.63;;
63817;SDS011;53093;55.092;73.476;2022-10-16T16:14:07;36.53;;;22.75;;
63817;SDS011;53093;55.092;73.476;2022-10-16T16:16:34;33.30;;;21.90;;
63817;SDS011;53093;55.092;73.476;2022-10-16T16:19:04;37.00;;;25.15;;
63817;SDS011;53093;55.092;73.476;2022-10-16T16:21:32;36.67;;;25.45;;
63817;SDS011;53093;55.092;73.476;2022-10-16T16:24:00;36.97;;;24.88;;
63817;SDS011;53093;55.092;73.476;2022-10-16T16:26:28;37.25;;;27.38;;
63817;SDS011;53093;55.092;73.476;2022-10-16T16:29:00;39.70;;;28.30;;
63817;SDS011;53093;55.092;73.476;2022-10-16T16:31:27;39.28;;;27.80;;
63817;SDS011;53093;55.092;73.476;2022-10-16T16:34:05;35.78;;;27.27;;